Time,TemperatureF,DewpointF,PressureIn,WindDirection,WindDirectionDegrees,WindSpeedMPH,WindSpeedGustMPH,Humidity,HourlyPrecipIn,Conditions,Clouds,dailyrainin,SoftwareType,DateUTC
2013-04-16 00:02:00,34.0,33.0,-100.00,North,5,11.0,15.0,94,-99.99,,,-99.99,,2013-04-16 08:02:00,
2013-04-16 00:12:00,34.0,33.0,-100.00,North,5,11.0,15.0,94,-99.99,,,-99.99,,2013-04-16 08:12:00,
2013-04-16 00:22:00,34.0,31.0,-100.00,North,0,8.0,13.0,88,-99.99,,,-99.99,,2013-04-16 08:22:00,
2013-04-16 00:32:00,34.0,31.0,-100.00,North,0,8.0,13.0,88,-99.99,,,-99.99,,2013-04-16 08:32:00,
2013-04-16 00:42:00,34.0,31.0,-100.00,North,0,8.0,13.0,88,-99.99,,,-99.99,,2013-04-16 08:42:00,
2013-04-16 00:51:00,34.0,30.0,-100.00,North,0,6.0,13.0,85,-99.99,,,-99.99,,2013-04-16 08:51:00,
2013-04-16 01:02:00,34.0,30.0,-100.00,North,0,6.0,13.0,85,-99.99,,,-99.99,,2013-04-16 09:02:00,
2013-04-16 01:12:00,34.0,30.0,-100.00,North,0,6.0,13.0,85,-99.99,,,-99.99,,2013-04-16 09:12:00,
2013-04-16 01:22:00,34.0,29.0,-100.00,North,10,11.0,16.0,81,-99.99,,,-99.99,,2013-04-16 09:22:00,
2013-04-16 01:32:00,34.0,29.0,-100.00,North,10,11.0,16.0,81,-99.99,,,-99.99,,2013-04-16 09:32:00,
2013-04-16 01:42:00,34.0,29.0,-100.00,North,10,11.0,16.0,81,-99.99,,,-99.99,,2013-04-16 09:42:00,
2013-04-16 01:52:00,34.0,27.0,-100.00,North,5,7.0,14.0,74,-99.99,,,-99.99,,2013-04-16 09:52:00,
2013-04-16 02:03:00,34.0,27.0,-100.00,North,5,7.0,14.0,74,-99.99,,,-99.99,,2013-04-16 10:03:00,
2013-04-16 02:12:00,34.0,27.0,-100.00,North,5,7.0,14.0,74,-99.99,,,-99.99,,2013-04-16 10:12:00,
2013-04-16 02:22:00,34.0,26.0,-100.00,North,350,8.0,14.0,73,-99.99,,,-99.99,,2013-04-16 10:22:00,
2013-04-16 02:32:00,34.0,26.0,-100.00,North,350,8.0,14.0,73,-99.99,,,-99.99,,2013-04-16 10:32:00,
2013-04-16 02:42:00,34.0,26.0,-100.00,North,350,8.0,14.0,73,-99.99,,,-99.99,,2013-04-16 10:42:00,
2013-04-16 02:52:00,34.0,27.0,-100.00,North,0,11.0,14.0,76,-99.99,,,-99.99,,2013-04-16 10:52:00,
2013-04-16 03:02:00,34.0,27.0,-100.00,North,0,11.0,14.0,76,-99.99,,,-99.99,,2013-04-16 11:02:00,
2013-04-16 03:12:00,34.0,27.0,-100.00,North,0,11.0,14.0,76,-99.99,,,-99.99,,2013-04-16 11:12:00,
2013-04-16 03:22:00,34.0,26.0,-100.00,North,5,12.0,17.0,71,-99.99,,,-99.99,,2013-04-16 11:22:00,
2013-04-16 03:32:00,34.0,26.0,-100.00,North,5,12.0,17.0,71,-99.99,,,-99.99,,2013-04-16 11:32:00,
2013-04-16 03:42:00,34.0,26.0,-100.00,North,5,12.0,17.0,71,-99.99,,,-99.99,,2013-04-16 11:42:00,
2013-04-16 03:52:00,34.0,26.0,-100.00,North,0,12.0,19.0,73,-99.99,,,-99.99,,2013-04-16 11:52:00,
2013-04-16 04:02:00,34.0,26.0,-100.00,North,0,12.0,19.0,73,-99.99,,,-99.99,,2013-04-16 12:02:00,
2013-04-16 04:12:00,34.0,26.0,-100.00,North,0,12.0,19.0,73,-99.99,,,-99.99,,2013-04-16 12:12:00,
2013-04-16 04:22:00,34.0,28.0,-100.00,North,350,9.0,16.0,78,-99.99,,,-99.99,,2013-04-16 12:22:00,
2013-04-16 04:32:00,34.0,28.0,-100.00,North,350,9.0,16.0,78,-99.99,,,-99.99,,2013-04-16 12:32:00,
2013-04-16 04:42:00,34.0,28.0,-100.00,North,350,9.0,16.0,78,-99.99,,,-99.99,,2013-04-16 12:42:00,
2013-04-16 04:51:00,33.0,27.0,-100.00,North,0,11.0,14.0,76,-99.99,,,-99.99,,2013-04-16 12:51:00,
2013-04-16 05:02:00,33.0,27.0,-100.00,North,0,11.0,14.0,76,-99.99,,,-99.99,,2013-04-16 13:02:00,
2013-04-16 05:12:00,33.0,27.0,-100.00,North,0,11.0,14.0,76,-99.99,,,-99.99,,2013-04-16 13:12:00,
2013-04-16 05:22:00,34.0,28.0,-100.00,North,0,14.0,20.0,78,-99.99,,,-99.99,,2013-04-16 13:22:00,
2013-04-16 05:32:00,34.0,28.0,-100.00,North,0,14.0,20.0,78,-99.99,,,-99.99,,2013-04-16 13:32:00,
2013-04-16 05:42:00,34.0,28.0,-100.00,North,0,14.0,20.0,78,-99.99,,,-99.99,,2013-04-16 13:42:00,
2013-04-16 05:52:00,34.0,28.0,-100.00,North,5,13.0,19.0,78,-99.99,,,-99.99,,2013-04-16 13:52:00,
2013-04-16 06:02:00,34.0,28.0,-100.00,North,5,13.0,19.0,78,-99.99,,,-99.99,,2013-04-16 14:02:00,
2013-04-16 06:12:00,34.0,28.0,-100.00,North,5,13.0,19.0,78,-99.99,,,-99.99,,2013-04-16 14:12:00,
2013-04-16 06:22:00,34.0,27.0,-100.00,North,350,13.0,23.0,74,-99.99,,,-99.99,,2013-04-16 14:22:00,
2013-04-16 06:32:00,34.0,27.0,-100.00,North,350,13.0,23.0,74,-99.99,,,-99.99,,2013-04-16 14:32:00,
2013-04-16 06:42:00,34.0,27.0,-100.00,North,350,13.0,23.0,74,-99.99,,,-99.99,,2013-04-16 14:42:00,
2013-04-16 06:51:00,34.0,27.0,-100.00,North,0,14.0,22.0,75,-99.99,,,-99.99,,2013-04-16 14:51:00,
2013-04-16 07:02:00,34.0,27.0,-100.00,North,0,14.0,22.0,75,-99.99,,,-99.99,,2013-04-16 15:02:00,
2013-04-16 07:12:00,34.0,27.0,-100.00,North,0,14.0,22.0,75,-99.99,,,-99.99,,2013-04-16 15:12:00,
2013-04-16 07:22:00,35.0,28.0,-100.00,North,0,14.0,23.0,76,-99.99,,,-99.99,,2013-04-16 15:22:00,
2013-04-16 07:32:00,35.0,28.0,-100.00,North,0,14.0,23.0,76,-99.99,,,-99.99,,2013-04-16 15:32:00,
2013-04-16 07:43:00,35.0,28.0,-100.00,North,0,14.0,23.0,76,-99.99,,,-99.99,,2013-04-16 15:43:00,
2013-04-16 07:52:00,34.0,31.0,-100.00,NNE,15,7.0,27.0,87,-99.99,,,-99.99,,2013-04-16 15:52:00,
2013-04-16 08:03:00,34.0,31.0,-100.00,NNE,15,7.0,27.0,87,-99.99,,,-99.99,,2013-04-16 16:03:00,
2013-04-16 08:12:00,34.0,31.0,-100.00,NNE,15,7.0,27.0,87,-99.99,,,-99.99,,2013-04-16 16:12:00,
2013-04-16 08:22:00,34.0,32.0,-100.00,North,0,12.0,20.0,91,-99.99,,,-99.99,,2013-04-16 16:22:00,
2013-04-16 08:32:00,34.0,32.0,-100.00,North,0,12.0,20.0,91,-99.99,,,-99.99,,2013-04-16 16:32:00,
2013-04-16 08:42:00,34.0,32.0,-100.00,North,0,12.0,20.0,91,-99.99,,,-99.99,,2013-04-16 16:42:00,
2013-04-16 08:52:00,34.0,32.0,-100.00,North,355,16.0,26.0,93,-99.99,,,-99.99,,2013-04-16 16:52:00,
2013-04-16 09:02:00,34.0,32.0,-100.00,North,355,16.0,26.0,93,-99.99,,,-99.99,,2013-04-16 17:02:00,
2013-04-16 09:12:00,34.0,32.0,-100.00,North,355,16.0,26.0,93,-99.99,,,-99.99,,2013-04-16 17:12:00,
2013-04-16 09:22:00,34.0,32.0,-100.00,North,0,10.0,24.0,89,-99.99,,,-99.99,,2013-04-16 17:22:00,
2013-04-16 09:32:00,34.0,32.0,-100.00,North,0,10.0,24.0,89,-99.99,,,-99.99,,2013-04-16 17:32:00,
2013-04-16 09:43:00,34.0,32.0,-100.00,North,0,10.0,24.0,89,-99.99,,,-99.99,,2013-04-16 17:43:00,
2013-04-16 09:52:00,34.0,31.0,-100.00,North,10,9.0,17.0,90,-99.99,,,-99.99,,2013-04-16 17:52:00,
2013-04-16 10:02:00,34.0,31.0,-100.00,North,10,9.0,17.0,90,-99.99,,,-99.99,,2013-04-16 18:02:00,
2013-04-16 10:12:00,34.0,31.0,-100.00,North,10,9.0,17.0,90,-99.99,,,-99.99,,2013-04-16 18:12:00,
2013-04-16 10:22:00,35.0,29.0,-100.00,North,0,16.0,22.0,78,-99.99,,,-99.99,,2013-04-16 18:22:00,
2013-04-16 10:32:00,35.0,29.0,-100.00,North,0,16.0,22.0,78,-99.99,,,-99.99,,2013-04-16 18:32:00,
2013-04-16 10:42:00,35.0,29.0,-100.00,North,0,16.0,22.0,78,-99.99,,,-99.99,,2013-04-16 18:42:00,
2013-04-16 10:52:00,36.0,28.0,-100.00,North,0,11.0,19.0,72,-99.99,,,-99.99,,2013-04-16 18:52:00,
2013-04-16 11:02:00,36.0,28.0,-100.00,North,0,11.0,19.0,72,-99.99,,,-99.99,,2013-04-16 19:02:00,
2013-04-16 11:12:00,36.0,28.0,-100.00,North,0,11.0,19.0,72,-99.99,,,-99.99,,2013-04-16 19:12:00,
2013-04-16 11:22:00,35.0,27.0,-100.00,North,0,16.0,22.0,73,-99.99,,,-99.99,,2013-04-16 19:22:00,
2013-04-16 11:32:00,35.0,27.0,-100.00,North,0,16.0,22.0,73,-99.99,,,-99.99,,2013-04-16 19:32:00,
2013-04-16 11:42:00,35.0,27.0,-100.00,North,0,16.0,22.0,73,-99.99,,,-99.99,,2013-04-16 19:42:00,
2013-04-16 11:52:00,38.0,27.0,-100.00,North,5,12.0,18.0,66,-99.99,,,-99.99,,2013-04-16 19:52:00,
2013-04-16 12:02:00,38.0,27.0,-100.00,North,5,12.0,18.0,66,-99.99,,,-99.99,,2013-04-16 20:02:00,
2013-04-16 12:12:00,38.0,27.0,-100.00,North,5,12.0,18.0,66,-99.99,,,-99.99,,2013-04-16 20:12:00,
2013-04-16 12:22:00,35.0,29.0,-100.00,North,5,17.0,22.0,77,-99.99,,,-99.99,,2013-04-16 20:22:00,
2013-04-16 12:32:00,35.0,29.0,-100.00,North,5,17.0,22.0,77,-99.99,,,-99.99,,2013-04-16 20:32:00,
2013-04-16 12:42:00,35.0,29.0,-100.00,North,5,17.0,22.0,77,-99.99,,,-99.99,,2013-04-16 20:42:00,
2013-04-16 12:51:00,37.0,28.0,-100.00,North,5,13.0,21.0,68,-99.99,,,-99.99,,2013-04-16 20:51:00,
2013-04-16 13:02:00,37.0,28.0,-100.00,North,5,13.0,21.0,68,-99.99,,,-99.99,,2013-04-16 21:02:00,
2013-04-16 13:12:00,37.0,28.0,-100.00,North,5,13.0,21.0,68,-99.99,,,-99.99,,2013-04-16 21:12:00,
2013-04-16 13:22:00,38.0,27.0,-100.00,NNE,15,12.0,21.0,64,-99.99,,,-99.99,,2013-04-16 21:22:00,
2013-04-16 13:32:00,38.0,27.0,-100.00,NNE,15,12.0,21.0,64,-99.99,,,-99.99,,2013-04-16 21:32:00,
2013-04-16 13:42:00,38.0,27.0,-100.00,NNE,15,12.0,21.0,64,-99.99,,,-99.99,,2013-04-16 21:42:00,
2013-04-16 13:52:00,39.0,26.0,-100.00,North,10,10.0,19.0,60,-99.99,,,-99.99,,2013-04-16 21:52:00,
2013-04-16 14:02:00,39.0,26.0,-100.00,North,10,10.0,19.0,60,-99.99,,,-99.99,,2013-04-16 22:02:00,
2013-04-16 14:12:00,39.0,26.0,-100.00,North,10,10.0,19.0,60,-99.99,,,-99.99,,2013-04-16 22:12:00,
2013-04-16 14:22:00,39.0,24.0,-100.00,North,0,7.0,16.0,53,-99.99,,,-99.99,,2013-04-16 22:22:00,
2013-04-16 14:32:00,39.0,24.0,-100.00,North,0,7.0,16.0,53,-99.99,,,-99.99,,2013-04-16 22:32:00,
2013-04-16 14:42:00,39.0,24.0,-100.00,North,0,7.0,16.0,53,-99.99,,,-99.99,,2013-04-16 22:42:00,
2013-04-16 14:52:00,40.0,22.0,-100.00,NNE,20,11.0,18.0,48,-99.99,,,-99.99,,2013-04-16 22:52:00,
2013-04-16 15:02:00,40.0,22.0,-100.00,NNE,20,11.0,18.0,48,-99.99,,,-99.99,,2013-04-16 23:02:00,
2013-04-16 15:12:00,40.0,22.0,-100.00,NNE,20,11.0,18.0,48,-99.99,,,-99.99,,2013-04-16 23:12:00,
2013-04-16 15:21:00,40.0,22.0,-100.00,North,10,11.0,15.0,47,-99.99,,,-99.99,,2013-04-16 23:21:00,
2013-04-16 15:32:00,40.0,22.0,-100.00,North,10,11.0,15.0,47,-99.99,,,-99.99,,2013-04-16 23:32:00,
2013-04-16 15:42:00,40.0,22.0,-100.00,North,10,11.0,15.0,47,-99.99,,,-99.99,,2013-04-16 23:42:00,
2013-04-16 15:52:00,41.0,22.0,-100.00,NNE,25,7.0,14.0,44,-99.99,,,-99.99,,2013-04-16 23:52:00,
2013-04-16 16:02:00,41.0,22.0,-100.00,NNE,25,7.0,14.0,44,-99.99,,,-99.99,,2013-04-17 00:02:00,
2013-04-16 16:12:00,41.0,22.0,-100.00,NNE,25,7.0,14.0,44,-99.99,,,-99.99,,2013-04-17 00:12:00,
2013-04-16 16:22:00,41.0,21.0,-100.00,NNE,30,6.0,11.0,43,-99.99,,,-99.99,,2013-04-17 00:22:00,
2013-04-16 16:32:00,41.0,21.0,-100.00,NNE,30,6.0,11.0,43,-99.99,,,-99.99,,2013-04-17 00:32:00,
2013-04-16 16:42:00,41.0,21.0,-100.00,NNE,30,6.0,11.0,43,-99.99,,,-99.99,,2013-04-17 00:42:00,
2013-04-16 16:52:00,39.0,18.0,-100.00,North,0,11.0,20.0,42,-99.99,,,-99.99,,2013-04-17 00:52:00,
2013-04-16 17:02:00,39.0,18.0,-100.00,North,0,11.0,20.0,42,-99.99,,,-99.99,,2013-04-17 01:02:00,
2013-04-16 17:12:00,39.0,18.0,-100.00,North,0,11.0,20.0,42,-99.99,,,-99.99,,2013-04-17 01:12:00,
2013-04-16 17:22:00,39.0,16.0,-100.00,North,355,15.0,20.0,38,-99.99,,,-99.99,,2013-04-17 01:22:00,
2013-04-16 17:32:00,39.0,16.0,-100.00,North,355,15.0,20.0,38,-99.99,,,-99.99,,2013-04-17 01:32:00,
2013-04-16 17:42:00,39.0,16.0,-100.00,North,355,15.0,20.0,38,-99.99,,,-99.99,,2013-04-17 01:42:00,
2013-04-16 17:52:00,40.0,16.0,-100.00,North,0,14.0,22.0,37,-99.99,,,-99.99,,2013-04-17 01:52:00,
2013-04-16 18:02:00,40.0,16.0,-100.00,North,0,14.0,22.0,37,-99.99,,,-99.99,,2013-04-17 02:02:00,
2013-04-16 18:12:00,40.0,16.0,-100.00,North,0,14.0,22.0,37,-99.99,,,-99.99,,2013-04-17 02:12:00,
2013-04-16 18:22:00,40.0,17.0,-100.00,North,0,6.0,12.0,37,-99.99,,,-99.99,,2013-04-17 02:22:00,
2013-04-16 18:32:00,40.0,17.0,-100.00,North,0,6.0,12.0,37,-99.99,,,-99.99,,2013-04-17 02:32:00,
2013-04-16 18:42:00,40.0,17.0,-100.00,North,0,6.0,12.0,37,-99.99,,,-99.99,,2013-04-17 02:42:00,
2013-04-16 18:52:00,39.0,16.0,-100.00,North,0,12.0,16.0,38,-99.99,,,-99.99,,2013-04-17 02:52:00,
2013-04-16 19:02:00,39.0,16.0,-100.00,North,0,12.0,16.0,38,-99.99,,,-99.99,,2013-04-17 03:02:00,
2013-04-16 19:12:00,39.0,16.0,-100.00,North,0,12.0,16.0,38,-99.99,,,-99.99,,2013-04-17 03:12:00,
2013-04-16 19:22:00,39.0,15.0,-100.00,North,0,9.0,14.0,37,-99.99,,,-99.99,,2013-04-17 03:22:00,
2013-04-16 19:32:00,39.0,15.0,-100.00,North,0,9.0,14.0,37,-99.99,,,-99.99,,2013-04-17 03:32:00,
2013-04-16 19:42:00,39.0,15.0,-100.00,North,0,9.0,14.0,37,-99.99,,,-99.99,,2013-04-17 03:42:00,
2013-04-16 19:53:00,38.0,15.0,-100.00,North,0,7.0,13.0,38,-99.99,,,-99.99,,2013-04-17 03:53:00,
2013-04-16 20:03:00,38.0,15.0,-100.00,North,0,7.0,13.0,38,-99.99,,,-99.99,,2013-04-17 04:03:00,
2013-04-16 20:13:00,38.0,15.0,-100.00,North,0,7.0,13.0,38,-99.99,,,-99.99,,2013-04-17 04:13:00,
2013-04-16 20:22:00,37.0,14.0,-100.00,NW,325,8.0,10.0,38,-99.99,,,-99.99,,2013-04-17 04:22:00,
2013-04-16 20:33:00,37.0,14.0,-100.00,NW,325,8.0,10.0,38,-99.99,,,-99.99,,2013-04-17 04:33:00,
2013-04-16 20:42:00,37.0,14.0,-100.00,NW,325,8.0,10.0,38,-99.99,,,-99.99,,2013-04-17 04:42:00,
2013-04-16 20:52:00,35.0,15.0,-100.00,WNW,290,4.0,9.0,42,-99.99,,,-99.99,,2013-04-17 04:52:00,
2013-04-16 21:02:00,35.0,15.0,-100.00,WNW,290,4.0,9.0,42,-99.99,,,-99.99,,2013-04-17 05:02:00,
2013-04-16 21:12:00,35.0,15.0,-100.00,WNW,290,4.0,9.0,42,-99.99,,,-99.99,,2013-04-17 05:12:00,
2013-04-16 21:22:00,34.0,15.0,-100.00,NW,320,1.0,3.0,44,-99.99,,,-99.99,,2013-04-17 05:22:00,
2013-04-16 21:32:00,34.0,15.0,-100.00,NW,320,1.0,3.0,44,-99.99,,,-99.99,,2013-04-17 05:32:00,
2013-04-16 21:42:00,34.0,15.0,-100.00,NW,320,1.0,3.0,44,-99.99,,,-99.99,,2013-04-17 05:42:00,
2013-04-16 21:52:00,32.0,14.0,-100.00,North,355,1.0,3.0,46,-99.99,,,-99.99,,2013-04-17 05:52:00,
2013-04-16 22:02:00,32.0,14.0,-100.00,North,355,1.0,3.0,46,-99.99,,,-99.99,,2013-04-17 06:02:00,
2013-04-16 22:12:00,32.0,14.0,-100.00,North,355,1.0,3.0,46,-99.99,,,-99.99,,2013-04-17 06:12:00,
2013-04-16 22:22:00,31.0,15.0,-100.00,SSE,155,2.0,3.0,50,-99.99,,,-99.99,,2013-04-17 06:22:00,
2013-04-16 22:32:00,31.0,15.0,-100.00,SSE,155,2.0,3.0,50,-99.99,,,-99.99,,2013-04-17 06:32:00,
2013-04-16 22:42:00,31.0,15.0,-100.00,SSE,155,2.0,3.0,50,-99.99,,,-99.99,,2013-04-17 06:42:00,
2013-04-16 22:52:00,31.0,15.0,-100.00,ENE,65,2.0,4.0,51,-99.99,,,-99.99,,2013-04-17 06:52:00,
2013-04-16 23:02:00,31.0,15.0,-100.00,ENE,65,2.0,4.0,51,-99.99,,,-99.99,,2013-04-17 07:02:00,
2013-04-16 23:12:00,31.0,15.0,-100.00,ENE,65,2.0,4.0,51,-99.99,,,-99.99,,2013-04-17 07:12:00,
2013-04-16 23:22:00,30.0,14.0,-100.00,SSE,165,2.0,4.0,51,-99.99,,,-99.99,,2013-04-17 07:22:00,
2013-04-16 23:32:00,30.0,14.0,-100.00,SSE,165,2.0,4.0,51,-99.99,,,-99.99,,2013-04-17 07:32:00,
2013-04-16 23:42:00,30.0,14.0,-100.00,SSE,165,2.0,4.0,51,-99.99,,,-99.99,,2013-04-17 07:42:00,
2013-04-16 23:52:00,30.0,13.0,-100.00,SE,145,2.0,3.0,49,-99.99,,,-99.99,,2013-04-17 07:52:00,